Time;durP1;ratioP1;P1;durP2;ratioP2;P2;SDS_P1;SDS_P2;PMS_P1;PMS_P2;Temp;Humidity;BMP_temperature;BMP_pressure;BME280_temperature;BME280_humidity;BME280_pressure;Samples;Min_cycle;Max_cycle;Signal;HPM_P1;HPM_P2
2021/01/13 00:02:08;;;;;;;12.88;6.70;;;2.10;98.20;;;;;;5059748;28;20192;-78
2021/01/13 00:04:34;;;;;;;11.80;4.97;;;2.10;98.20;;;;;;5062873;28;20213;-77
2021/01/13 00:07:00;;;;;;;10.52;5.80;;;2.20;98.10;;;;;;5054028;28;20279;-78
2021/01/13 00:09:25;;;;;;;10.35;5.80;;;2.30;98.00;;;;;;5056564;28;20234;-79
2021/01/13 00:11:56;;;;;;;10.47;5.60;;;2.30;97.60;;;;;;5068831;28;20656;-78
2021/01/13 00:14:23;;;;;;;11.45;6.20;;;2.30;97.60;;;;;;5069078;28;20631;-78
2021/01/13 00:16:49;;;;;;;16.83;5.80;;;2.30;97.60;;;;;;5055998;28;20184;-76
2021/01/13 00:19:15;;;;;;;8.25;4.50;;;2.30;97.50;;;;;;5057794;28;20208;-77
2021/01/13 00:21:40;;;;;;;8.07;4.50;;;2.30;97.30;;;;;;5057254;28;20188;-77
2021/01/13 00:24:08;;;;;;;8.33;4.10;;;2.40;96.90;;;;;;5054929;28;20679;-76
2021/01/13 00:26:33;;;;;;;7.97;4.72;;;2.40;96.70;;;;;;5055596;28;20253;-77
2021/01/13 00:28:59;;;;;;;9.87;4.33;;;2.50;96.40;;;;;;5055004;28;20180;-75
2021/01/13 00:31:25;;;;;;;8.77;3.85;;;2.50;96.20;;;;;;5053343;28;20592;-77
2021/01/13 00:33:51;;;;;;;7.33;3.73;;;2.50;96.00;;;;;;5067886;28;20250;-75
2021/01/13 00:36:22;;;;;;;7.97;4.50;;;2.60;95.60;;;;;;5064283;28;20669;-76
2021/01/13 00:38:48;;;;;;;12.63;6.53;;;2.60;95.40;;;;;;5052564;28;20184;-76
2021/01/13 00:41:13;;;;;;;9.90;5.70;;;2.60;95.50;;;;;;5054210;28;20713;-76
2021/01/13 00:43:40;;;;;;;11.30;4.50;;;2.70;95.50;;;;;;5055545;28;20284;-77
2021/01/13 00:46:05;;;;;;;12.10;5.82;;;2.70;95.50;;;;;;5073695;28;20208;-74
2021/01/13 00:48:31;;;;;;;7.80;4.80;;;2.60;95.70;;;;;;5059705;28;20919;-75
2021/01/13 00:50:58;;;;;;;10.07;4.97;;;2.60;95.90;;;;;;5057579;28;20291;-76
2021/01/13 00:53:24;;;;;;;8.80;5.00;;;2.60;96.10;;;;;;5061891;28;20191;-76
2021/01/13 00:55:50;;;;;;;10.30;5.07;;;2.50;96.00;;;;;;5061993;28;20199;-76
2021/01/13 00:58:15;;;;;;;12.60;5.53;;;2.50;95.90;;;;;;5061511;28;20454;-76
2021/01/13 01:00:41;;;;;;;15.83;6.30;;;2.50;95.90;;;;;;5073519;28;20269;-75
2021/01/13 01:03:07;;;;;;;10.80;5.63;;;2.40;96.00;;;;;;5072589;28;20216;-75
2021/01/13 01:05:32;;;;;;;9.70;4.90;;;2.50;96.10;;;;;;5064584;28;20216;-75
2021/01/13 01:07:58;;;;;;;9.47;5.20;;;2.50;96.00;;;;;;5052450;28;20173;-75
2021/01/13 01:10:29;;;;;;;9.03;4.87;;;2.50;95.80;;;;;;5059767;28;20297;-75
2021/01/13 01:12:55;;;;;;;10.63;5.10;;;2.50;95.80;;;;;;5071262;28;20184;-74
2021/01/13 01:15:22;;;;;;;8.85;4.65;;;2.60;95.90;;;;;;5052192;28;20216;-74
2021/01/13 01:17:47;;;;;;;9.43;4.75;;;2.60;95.60;;;;;;5066524;28;20517;-75
2021/01/13 01:20:14;;;;;;;10.93;4.83;;;2.50;95.50;;;;;;5059745;28;20222;-76
2021/01/13 01:22:54;;;;;;;10.93;5.13;;;2.50;95.50;;;;;;5055024;28;20195;-74
2021/01/13 01:25:21;;;;;;;7.63;4.85;;;2.60;95.60;;;;;;5050626;28;20583;-74
2021/01/13 01:27:57;;;;;;;9.40;4.68;;;2.60;95.60;;;;;;5050994;28;20187;-75
2021/01/13 01:30:26;;;;;;;9.00;4.60;;;2.60;95.50;;;;;;5051374;28;20279;-75
2021/01/13 01:32:51;;;;;;;7.20;4.00;;;2.60;95.40;;;;;;5049694;28;20695;-74
2021/01/13 01:35:18;;;;;;;7.97;4.37;;;2.60;95.30;;;;;;5051262;28;20236;-74
2021/01/13 01:37:44;;;;;;;9.55;4.75;;;2.70;95.10;;;;;;5064962;28;20196;-74
2021/01/13 01:40:12;;;;;;;6.30;3.97;;;2.70;94.70;;;;;;5053060;28;20228;-74
2021/01/13 01:42:52;;;;;;;6.75;3.72;;;2.70;94.60;;;;;;5054430;28;20188;-75
2021/01/13 01:45:24;;;;;;;7.00;3.55;;;2.80;94.50;;;;;;5052517;28;20204;-75
2021/01/13 01:47:59;;;;;;;8.40;3.88;;;2.80;94.50;;;;;;5059853;28;20560;-76
2021/01/13 01:50:40;;;;;;;7.93;3.85;;;2.80;94.40;;;;;;5049274;28;20192;-75
2021/01/13 01:53:20;;;;;;;9.20;4.25;;;2.80;94.30;;;;;;5061946;28;20215;-75
2021/01/13 01:55:59;;;;;;;10.00;4.18;;;2.80;94.20;;;;;;5063968;28;20718;-74
2021/01/13 01:58:27;;;;;;;7.45;3.33;;;2.90;94.20;;;;;;5051031;28;20544;-75
2021/01/13 02:00:57;;;;;;;6.30;3.17;;;2.80;94.10;;;;;;5051061;28;20200;-76
2021/01/13 02:03:33;;;;;;;7.88;3.75;;;2.80;94.20;;;;;;5067143;28;20194;-76
2021/01/13 02:06:04;;;;;;;4.82;3.90;;;2.80;94.20;;;;;;5069509;28;20244;-75
2021/01/13 02:08:39;;;;;;;6.40;3.78;;;2.90;94.00;;;;;;5053327;28;20203;-73
2021/01/13 02:11:16;;;;;;;5.35;3.10;;;2.90;93.80;;;;;;5053470;28;20195;-73
2021/01/13 02:13:45;;;;;;;6.30;3.05;;;2.90;93.60;;;;;;5049298;28;20200;-74
2021/01/13 02:16:17;;;;;;;7.60;3.05;;;2.90;93.60;;;;;;5050632;28;20242;-75
2021/01/13 02:18:44;;;;;;;5.23;2.90;;;2.90;93.30;;;;;;5052042;28;20732;-73
2021/01/13 02:21:20;;;;;;;3.90;3.20;;;2.90;92.90;;;;;;5050443;28;20595;-76
2021/01/13 02:24:09;;;;;;;9.10;3.60;;;2.90;92.60;;;;;;5051881;28;20716;-75
2021/01/13 02:27:06;;;;;;;5.82;3.38;;;2.90;92.40;;;;;;5056113;28;20208;-76
2021/01/13 02:29:43;;;;;;;6.20;3.00;;;2.90;92.40;;;;;;5053992;28;20180;-76
2021/01/13 02:32:27;;;;;;;7.38;3.30;;;2.90;92.60;;;;;;5062700;28;20187;-74
2021/01/13 02:35:08;;;;;;;4.05;3.20;;;2.90;92.60;;;;;;5038680;28;20220;-75
2021/01/13 02:37:59;;;;;;;5.03;2.95;;;2.90;92.70;;;;;;5064561;28;20667;-75
2021/01/13 02:40:28;;;;;;;5.30;3.05;;;3.00;92.90;;;;;;5051633;28;20577;-74
2021/01/13 02:43:02;;;;;;;5.78;3.20;;;2.90;93.00;;;;;;5070404;28;20211;-74
2021/01/13 02:45:30;;;;;;;9.35;4.60;;;3.00;93.10;;;;;;5067193;28;20253;-75
2021/01/13 02:47:59;;;;;;;10.63;4.00;;;3.00;93.20;;;;;;5050664;28;20185;-76
2021/01/13 02:50:26;;;;;;;6.05;3.70;;;3.00;93.40;;;;;;5049650;28;20275;-76
2021/01/13 02:53:09;;;;;;;5.45;3.45;;;2.90;93.80;;;;;;5060347;28;20563;-76
2021/01/13 02:55:39;;;;;;;9.48;3.90;;;2.90;94.20;;;;;;5070177;28;20200;-74
2021/01/13 02:58:08;;;;;;;5.13;3.08;;;2.80;94.30;;;;;;5058227;28;20191;-76
2021/01/13 03:00:36;;;;;;;10.00;3.90;;;2.80;94.50;;;;;;5050639;28;20220;-73
2021/01/13 03:03:02;;;;;;;6.13;3.70;;;2.80;94.40;;;;;;5062591;28;20253;-74
2021/01/13 03:05:29;;;;;;;7.38;3.42;;;2.70;94.40;;;;;;5061646;28;20247;-75
2021/01/13 03:07:59;;;;;;;5.47;3.45;;;2.70;94.60;;;;;;5065929;28;20264;-76
2021/01/13 03:10:28;;;;;;;5.72;3.30;;;2.70;94.90;;;;;;5065192;28;20204;-73
2021/01/13 03:13:02;;;;;;;12.10;4.55;;;2.70;94.80;;;;;;5051295;28;20184;-75
2021/01/13 03:15:30;;;;;;;4.60;2.72;;;2.70;94.70;;;;;;5052365;28;20226;-73
2021/01/13 03:18:03;;;;;;;7.07;3.30;;;2.70;94.60;;;;;;5050690;28;20196;-75
2021/01/13 03:20:57;;;;;;;10.32;3.95;;;2.80;94.40;;;;;;5050092;28;20196;-74
2021/01/13 03:23:22;;;;;;;11.23;3.15;;;2.80;94.20;;;;;;5050392;28;20179;-75
2021/01/13 03:25:54;;;;;;;6.30;3.20;;;2.80;94.20;;;;;;5048641;28;20200;-75
2021/01/13 03:28:23;;;;;;;12.27;3.70;;;2.80;94.40;;;;;;5049178;28;20180;-76
2021/01/13 03:30:51;;;;;;;5.10;3.00;;;2.80;94.60;;;;;;5049889;28;20210;-74
2021/01/13 03:33:32;;;;;;;7.50;3.38;;;2.80;94.90;;;;;;5050089;28;20669;-73
2021/01/13 03:36:40;;;;;;;6.75;3.80;;;2.70;94.90;;;;;;5067501;28;20206;-74
2021/01/13 03:39:08;;;;;;;9.93;4.13;;;2.70;94.90;;;;;;4984267;28;20201;-76
2021/01/13 03:41:52;;;;;;;6.57;3.05;;;2.70;95.10;;;;;;4979627;28;20191;-74
2021/01/13 03:44:28;;;;;;;6.65;2.85;;;2.70;95.00;;;;;;4981403;28;20707;-75
2021/01/13 03:46:55;;;;;;;6.30;3.20;;;2.60;94.70;;;;;;4981847;28;20660;-74
2021/01/13 03:49:34;;;;;;;9.93;2.63;;;2.70;94.60;;;;;;4977509;28;20596;-77
2021/01/13 03:52:08;;;;;;;7.65;3.10;;;2.70;94.40;;;;;;4973831;28;20187;-76
2021/01/13 03:54:35;;;;;;;3.85;2.08;;;2.60;94.30;;;;;;4988087;28;20226;-75
2021/01/13 03:57:07;;;;;;;5.35;2.65;;;2.60;94.20;;;;;;4967733;28;20235;-74
2021/01/13 04:00:07;;;;;;;4.15;2.70;;;2.60;93.90;;;;;;4968828;28;20329;-76
2021/01/13 04:02:45;;;;;;;7.63;3.38;;;2.60;93.90;;;;;;4969272;28;20270;-76
2021/01/13 04:05:27;;;;;;;5.05;3.05;;;2.60;94.20;;;;;;4968945;28;20571;-77
2021/01/13 04:07:55;;;;;;;6.10;3.20;;;2.60;94.70;;;;;;4969055;28;20191;-76
2021/01/13 04:10:21;;;;;;;5.35;3.33;;;2.50;95.00;;;;;;5025141;28;20196;-76
2021/01/13 04:12:57;;;;;;;8.27;3.25;;;2.50;95.10;;;;;;5055262;28;20204;-77
2021/01/13 04:15:34;;;;;;;5.05;3.38;;;2.40;95.20;;;;;;5059846;28;20203;-77
2021/01/13 04:18:04;;;;;;;5.20;3.40;;;2.40;95.60;;;;;;5063165;28;20856;-75
2021/01/13 04:20:30;;;;;;;8.77;3.40;;;2.30;95.80;;;;;;5057007;28;20470;-75
2021/01/13 04:22:56;;;;;;;16.60;4.40;;;2.30;95.90;;;;;;5064249;28;20188;-77
2021/01/13 04:25:22;;;;;;;5.90;3.20;;;2.30;95.90;;;;;;5060245;28;20204;-74
2021/01/13 04:27:48;;;;;;;9.63;4.43;;;2.30;96.00;;;;;;5069484;28;20233;-74
2021/01/13 04:30:15;;;;;;;5.57;3.20;;;2.30;95.60;;;;;;5072892;28;21176;-77
2021/01/13 04:32:41;;;;;;;7.95;3.75;;;2.30;95.00;;;;;;5059878;28;20659;-76
2021/01/13 04:35:07;;;;;;;5.03;3.37;;;2.40;94.90;;;;;;5059783;28;20209;-74
2021/01/13 04:37:35;;;;;;;10.25;3.40;;;2.40;94.90;;;;;;5065521;28;20457;-76
2021/01/13 04:40:28;;;;;;;8.32;3.00;;;2.40;94.90;;;;;;5053192;28;20196;-76
2021/01/13 04:43:02;;;;;;;7.00;3.58;;;2.40;95.00;;;;;;5051066;28;20868;-75
2021/01/13 04:45:42;;;;;;;7.32;3.45;;;2.50;95.10;;;;;;5058380;28;20235;-75
2021/01/13 04:48:17;;;;;;;8.70;3.50;;;2.40;95.20;;;;;;5052801;28;20181;-75
2021/01/13 04:50:48;;;;;;;11.18;3.78;;;2.30;95.40;;;;;;5064872;28;20191;-72
2021/01/13 04:53:18;;;;;;;7.88;3.33;;;2.30;95.70;;;;;;5051878;28;20267;-72
2021/01/13 04:55:47;;;;;;;8.73;3.10;;;2.20;96.00;;;;;;5051595;28;20792;-74
2021/01/13 04:59:04;;;;;;;8.18;3.80;;;2.20;96.00;;;;;;5051220;28;20188;-72
2021/01/13 05:02:11;;;;;;;7.10;3.30;;;2.20;96.20;;;;;;5016769;28;20726;-70
2021/01/13 05:05:00;;;;;;;5.45;3.03;;;2.20;95.80;;;;;;5036783;28;20216;-75
2021/01/13 05:07:36;;;;;;;7.20;3.42;;;2.20;95.60;;;;;;5041959;28;20287;-74
2021/01/13 05:10:12;;;;;;;18.05;4.22;;;2.20;95.50;;;;;;5053058;28;20184;-73
2021/01/13 05:12:57;;;;;;;6.75;3.47;;;2.20;95.50;;;;;;5064750;28;20195;-75
2021/01/13 05:15:30;;;;;;;5.55;3.20;;;2.10;95.60;;;;;;5067535;28;20211;-75
2021/01/13 05:18:10;;;;;;;5.32;3.50;;;2.20;95.80;;;;;;5055587;28;20193;-74
2021/01/13 05:20:39;;;;;;;6.10;3.45;;;2.10;95.90;;;;;;5061594;28;20215;-75
2021/01/13 05:23:08;;;;;;;5.13;3.20;;;2.10;95.90;;;;;;5073754;28;20188;-74
2021/01/13 05:25:44;;;;;;;7.72;4.25;;;2.10;96.00;;;;;;5058275;28;20212;-75
2021/01/13 05:28:24;;;;;;;6.07;3.28;;;2.20;95.80;;;;;;5050080;28;20188;-74
2021/01/13 05:30:54;;;;;;;7.07;3.80;;;2.20;95.50;;;;;;5051189;28;20200;-75
2021/01/13 05:33:25;;;;;;;6.40;3.22;;;2.20;95.40;;;;;;5061822;28;20231;-75
2021/01/13 05:35:54;;;;;;;6.63;3.30;;;2.20;95.40;;;;;;5052026;28;20208;-75
2021/01/13 05:38:45;;;;;;;12.88;4.22;;;2.30;95.00;;;;;;5054681;28;20238;-74
2021/01/13 05:41:14;;;;;;;6.35;3.55;;;2.30;94.50;;;;;;5054545;28;20730;-74
2021/01/13 05:43:42;;;;;;;7.07;3.30;;;2.30;94.50;;;;;;5053462;28;20185;-75
2021/01/13 05:46:14;;;;;;;8.63;3.47;;;2.30;94.60;;;;;;5060751;28;20941;-75
2021/01/13 05:48:41;;;;;;;8.57;3.30;;;2.40;94.60;;;;;;5051256;28;20186;-74
2021/01/13 05:51:07;;;;;;;9.13;4.63;;;2.30;94.40;;;;;;5050929;28;20239;-75
2021/01/13 05:53:34;;;;;;;4.47;3.15;;;2.20;94.50;;;;;;5049657;28;20291;-74
2021/01/13 05:56:02;;;;;;;6.43;3.55;;;2.20;94.80;;;;;;5049932;28;20228;-75
2021/01/13 05:58:29;;;;;;;5.95;3.40;;;2.10;94.60;;;;;;5051209;28;20238;-75
2021/01/13 06:00:58;;;;;;;6.68;2.92;;;2.10;94.50;;;;;;5050331;28;20208;-75
2021/01/13 06:03:32;;;;;;;7.10;3.40;;;2.00;94.50;;;;;;5051166;28;20243;-76
2021/01/13 06:05:59;;;;;;;5.07;3.60;;;2.00;94.60;;;;;;5049298;28;20196;-75
2021/01/13 06:08:28;;;;;;;6.88;3.70;;;2.00;94.70;;;;;;5049988;28;20881;-75
2021/01/13 06:11:02;;;;;;;9.52;3.88;;;2.00;95.00;;;;;;5050301;28;20219;-75
2021/01/13 06:13:33;;;;;;;11.60;3.75;;;1.90;95.10;;;;;;5056910;28;20183;-75
2021/01/13 06:16:04;;;;;;;6.65;3.65;;;1.90;95.40;;;;;;5054908;28;20216;-75
2021/01/13 06:18:32;;;;;;;7.07;4.35;;;1.90;95.50;;;;;;5049124;28;20192;-76
2021/01/13 06:20:59;;;;;;;11.65;4.45;;;1.80;95.80;;;;;;5058931;28;20261;-75
2021/01/13 06:23:28;;;;;;;8.63;3.97;;;1.80;96.00;;;;;;5050536;28;20267;-75
2021/01/13 06:25:56;;;;;;;12.02;4.40;;;1.80;96.10;;;;;;5065067;28;20204;-75
2021/01/13 06:28:26;;;;;;;8.75;4.18;;;1.80;96.00;;;;;;5059791;28;20651;-76
2021/01/13 06:31:07;;;;;;;7.57;4.40;;;1.70;96.20;;;;;;5049936;28;20274;-75
2021/01/13 06:33:50;;;;;;;10.27;4.63;;;1.70;96.30;;;;;;5050525;28;20204;-73
2021/01/13 06:36:34;;;;;;;11.68;5.10;;;1.70;96.40;;;;;;5036922;28;20181;-74
2021/01/13 06:39:04;;;;;;;6.70;4.60;;;1.60;96.40;;;;;;5050005;28;20256;-74
2021/01/13 06:41:47;;;;;;;11.00;4.75;;;1.60;96.50;;;;;;5049498;28;20631;-75
2021/01/13 06:44:13;;;;;;;9.40;5.47;;;1.60;96.60;;;;;;5048139;28;20208;-75
2021/01/13 06:46:39;;;;;;;11.93;4.55;;;1.60;96.50;;;;;;5064982;28;20655;-73
2021/01/13 06:49:19;;;;;;;8.20;4.70;;;1.60;96.30;;;;;;5050905;28;20267;-74
2021/01/13 06:51:47;;;;;;;11.45;5.28;;;1.60;96.20;;;;;;5048109;28;20188;-75
2021/01/13 06:54:15;;;;;;;8.25;4.10;;;1.50;96.10;;;;;;5048603;28;21001;-75
2021/01/13 06:56:59;;;;;;;11.15;5.05;;;1.50;96.40;;;;;;5050573;28;20185;-74
2021/01/13 06:59:28;;;;;;;12.07;5.50;;;1.60;96.50;;;;;;5052136;28;20204;-75
2021/01/13 07:01:58;;;;;;;10.63;5.05;;;1.60;96.50;;;;;;5051543;28;20249;-73
2021/01/13 07:04:25;;;;;;;11.23;5.63;;;1.50;96.60;;;;;;5050711;28;20645;-75
2021/01/13 07:06:58;;;;;;;19.35;6.93;;;1.50;96.70;;;;;;5050229;28;20196;-73
2021/01/13 07:09:37;;;;;;;17.23;5.72;;;1.50;96.70;;;;;;5064388;28;20274;-74
2021/01/13 07:12:10;;;;;;;9.30;5.70;;;1.50;96.70;;;;;;5049195;28;20183;-74
2021/01/13 07:14:40;;;;;;;11.20;5.20;;;1.50;96.80;;;;;;5054698;28;20205;-74
2021/01/13 07:17:08;;;;;;;11.52;5.30;;;1.50;96.90;;;;;;5049233;28;20667;-74
2021/01/13 07:19:35;;;;;;;12.48;5.35;;;1.50;96.70;;;;;;5052185;28;20207;-75
2021/01/13 07:22:02;;;;;;;12.10;5.07;;;1.40;96.80;;;;;;5059237;28;20172;-74
2021/01/13 07:24:29;;;;;;;15.48;6.57;;;1.40;96.90;;;;;;5052248;28;20224;-73
2021/01/13 07:27:00;;;;;;;14.07;6.80;;;1.40;97.10;;;;;;5050427;28;20359;-75
2021/01/13 07:29:27;;;;;;;21.15;7.78;;;1.40;97.10;;;;;;5050150;28;20528;-73
2021/01/13 07:31:57;;;;;;;24.65;8.38;;;1.40;97.20;;;;;;5048754;28;20197;-74
2021/01/13 07:34:41;;;;;;;15.07;7.25;;;1.50;97.20;;;;;;5048070;28;20224;-75
2021/01/13 07:37:07;;;;;;;16.67;7.78;;;1.50;97.20;;;;;;5061663;28;20658;-76
2021/01/13 07:39:59;;;;;;;18.58;7.55;;;1.50;96.90;;;;;;5061053;28;20694;-72
2021/01/13 07:42:47;;;;;;;15.85;7.43;;;1.50;96.90;;;;;;5039974;28;20240;-69
2021/01/13 07:45:16;;;;;;;9.32;5.40;;;1.50;96.60;;;;;;5047689;28;20208;-71
2021/01/13 07:48:10;;;;;;;11.13;5.13;;;1.50;96.50;;;;;;5047653;28;20177;-70
2021/01/13 07:50:43;;;;;;;12.68;5.55;;;1.40;96.10;;;;;;5048621;28;20280;-69
2021/01/13 07:53:21;;;;;;;9.45;5.32;;;1.50;96.10;;;;;;5048330;28;20180;-70
2021/01/13 07:55:57;;;;;;;13.23;6.60;;;1.40;95.90;;;;;;5044571;28;20641;-70
2021/01/13 07:58:27;;;;;;;13.90;6.22;;;1.50;96.00;;;;;;5048158;28;20184;-70
2021/01/13 08:01:19;;;;;;;18.73;6.90;;;1.40;95.80;;;;;;5045599;28;20246;-71
2021/01/13 08:03:57;;;;;;;11.20;5.82;;;1.40;95.80;;;;;;5047579;28;20192;-71
2021/01/13 08:06:27;;;;;;;10.70;4.63;;;1.50;95.70;;;;;;5064796;28;20381;-71
2021/01/13 08:09:14;;;;;;;10.68;6.00;;;1.60;95.30;;;;;;5052429;28;20173;-71
2021/01/13 08:12:14;;;;;;;10.88;5.45;;;1.50;94.90;;;;;;5052046;28;20185;-71
2021/01/13 08:15:07;;;;;;;18.83;6.00;;;1.50;95.00;;;;;;5051554;28;20283;-68
2021/01/13 08:17:54;;;;;;;16.08;6.05;;;1.50;95.00;;;;;;5050693;28;20200;-70
2021/01/13 08:20:32;;;;;;;13.77;6.03;;;1.60;95.00;;;;;;5055739;28;20203;-70
2021/01/13 08:23:09;;;;;;;11.32;5.95;;;1.60;95.00;;;;;;5053093;28;20670;-71
2021/01/13 08:25:42;;;;;;;11.35;5.57;;;1.70;94.70;;;;;;5050862;28;20224;-70
2021/01/13 08:28:12;;;;;;;11.95;5.15;;;1.80;94.60;;;;;;5058200;28;20254;-69
2021/01/13 08:30:44;;;;;;;13.38;6.00;;;1.90;94.30;;;;;;5067465;28;20188;-73
2021/01/13 08:33:23;;;;;;;10.80;5.30;;;2.00;93.90;;;;;;5052325;28;20295;-71
2021/01/13 08:36:01;;;;;;;12.18;5.10;;;2.10;93.20;;;;;;5050648;28;20238;-69
2021/01/13 08:38:27;;;;;;;9.85;5.82;;;2.10;92.60;;;;;;5051262;28;20181;-70
2021/01/13 08:40:54;;;;;;;10.13;5.30;;;2.20;92.20;;;;;;5054194;28;20216;-70
2021/01/13 08:43:22;;;;;;;12.63;5.35;;;2.20;91.80;;;;;;5051861;28;20192;-70
2021/01/13 08:45:51;;;;;;;13.55;5.00;;;2.20;91.60;;;;;;5050437;28;20307;-70
2021/01/13 08:48:21;;;;;;;8.85;5.13;;;2.20;91.20;;;;;;5051501;28;20675;-71
2021/01/13 08:51:08;;;;;;;14.85;5.88;;;2.20;91.20;;;;;;5050712;28;20204;-70
2021/01/13 08:53:35;;;;;;;11.73;6.03;;;2.20;91.00;;;;;;5052214;28;20188;-71
2021/01/13 08:56:01;;;;;;;9.20;4.93;;;2.20;90.90;;;;;;5049676;28;20235;-70
2021/01/13 08:58:28;;;;;;;5.85;3.90;;;2.20;90.90;;;;;;5051599;28;20181;-71
2021/01/13 09:01:06;;;;;;;11.38;5.20;;;2.20;90.60;;;;;;5049492;28;20571;-71
2021/01/13 09:03:43;;;;;;;7.95;4.60;;;2.20;90.70;;;;;;5050012;28;20910;-70
2021/01/13 09:06:19;;;;;;;7.55;4.18;;;2.30;90.40;;;;;;5049519;28;20670;-71
2021/01/13 09:08:52;;;;;;;6.90;4.22;;;2.20;90.50;;;;;;5040340;28;20220;-71
2021/01/13 09:11:38;;;;;;;10.18;5.07;;;2.20;90.50;;;;;;5050522;28;20655;-71
2021/01/13 09:14:22;;;;;;;9.32;4.80;;;2.30;90.60;;;;;;5051976;28;20212;-71
2021/01/13 09:16:55;;;;;;;10.95;5.22;;;2.50;90.60;;;;;;5052476;28;20200;-71
2021/01/13 09:19:35;;;;;;;7.10;4.28;;;2.60;90.10;;;;;;5051844;28;20188;-69
2021/01/13 09:22:09;;;;;;;14.38;4.55;;;2.60;89.70;;;;;;5061832;28;21065;-70
2021/01/13 09:24:37;;;;;;;15.23;4.90;;;2.60;89.30;;;;;;5051355;28;20258;-70
2021/01/13 09:27:04;;;;;;;9.68;3.75;;;2.70;89.20;;;;;;5061596;28;20195;-71
2021/01/13 09:29:53;;;;;;;9.68;4.07;;;2.80;88.40;;;;;;5057550;28;20593;-70
2021/01/13 09:32:23;;;;;;;11.05;4.43;;;2.80;88.60;;;;;;5057128;28;20181;-70
2021/01/13 09:34:50;;;;;;;14.43;4.30;;;2.90;88.60;;;;;;5050419;28;20224;-72
2021/01/13 09:37:20;;;;;;;7.15;4.30;;;2.90;88.30;;;;;;5052555;28;20196;-70
2021/01/13 09:40:00;;;;;;;11.48;4.65;;;2.90;88.10;;;;;;5054149;28;20589;-69
2021/01/13 09:42:40;;;;;;;6.35;3.75;;;2.80;88.30;;;;;;5055113;28;20181;-72
2021/01/13 09:45:08;;;;;;;11.35;4.00;;;2.90;88.40;;;;;;5049300;28;20283;-71
2021/01/13 09:47:34;;;;;;;14.48;4.45;;;2.90;88.10;;;;;;5051814;28;20192;-71
2021/01/13 09:50:00;;;;;;;11.73;3.65;;;2.90;87.60;;;;;;5051124;28;20184;-71
2021/01/13 09:52:40;;;;;;;5.68;2.90;;;2.90;87.30;;;;;;5053244;28;20189;-71
2021/01/13 09:55:10;;;;;;;10.15;3.35;;;2.80;87.60;;;;;;5047812;28;20591;-72
2021/01/13 09:57:37;;;;;;;6.95;3.92;;;2.80;87.70;;;;;;5053225;28;20196;-72
2021/01/13 10:00:09;;;;;;;12.00;3.75;;;2.80;88.30;;;;;;5051941;28;20217;-70
2021/01/13 10:02:35;;;;;;;6.32;3.45;;;2.90;88.10;;;;;;5051315;28;20663;-71
2021/01/13 10:05:01;;;;;;;5.40;3.70;;;3.00;88.40;;;;;;5049502;28;20233;-70
2021/01/13 10:07:32;;;;;;;11.10;3.30;;;3.00;87.80;;;;;;5050171;28;20564;-70
2021/01/13 10:09:59;;;;;;;11.60;3.97;;;3.10;87.30;;;;;;5048471;28;20802;-71
2021/01/13 10:12:44;;;;;;;5.53;3.30;;;3.00;87.10;;;;;;5049759;28;20676;-69
2021/01/13 10:15:12;;;;;;;8.65;3.67;;;3.10;87.30;;;;;;5049813;28;20679;-72
2021/01/13 10:17:39;;;;;;;5.35;3.30;;;3.10;87.30;;;;;;5050182;28;20558;-73
2021/01/13 10:20:19;;;;;;;10.18;3.70;;;3.20;87.40;;;;;;5039291;28;20200;-72
2021/01/13 10:22:47;;;;;;;5.18;3.50;;;3.30;87.00;;;;;;5055141;28;20212;-72
2021/01/13 10:25:24;;;;;;;6.93;3.65;;;3.30;87.10;;;;;;5050084;28;20212;-70
2021/01/13 10:27:50;;;;;;;6.43;3.40;;;3.30;87.10;;;;;;5053546;28;20192;-73
2021/01/13 10:30:17;;;;;;;5.57;3.47;;;3.30;86.90;;;;;;5050602;28;20280;-71
2021/01/13 10:33:03;;;;;;;5.70;2.85;;;3.40;87.00;;;;;;5045308;28;20790;-72
2021/01/13 10:35:39;;;;;;;8.43;3.70;;;3.50;86.30;;;;;;5048071;28;20254;-72
2021/01/13 10:38:05;;;;;;;7.85;3.08;;;3.50;86.00;;;;;;5054236;28;20210;-70
2021/01/13 10:40:31;;;;;;;6.78;3.30;;;3.50;85.60;;;;;;5049769;28;20213;-70
2021/01/13 10:42:57;;;;;;;10.73;4.03;;;3.60;85.70;;;;;;5051408;28;20257;-73
2021/01/13 10:45:24;;;;;;;5.93;3.53;;;3.60;85.30;;;;;;5046626;28;20442;-71
2021/01/13 10:47:54;;;;;;;4.40;3.03;;;3.60;85.30;;;;;;5049514;28;20423;-71
2021/01/13 10:50:25;;;;;;;6.38;3.30;;;3.60;85.20;;;;;;5047316;28;21002;-70
2021/01/13 10:52:54;;;;;;;6.05;3.40;;;3.50;85.20;;;;;;5048452;28;20188;-72
2021/01/13 10:55:22;;;;;;;6.72;3.15;;;3.50;85.50;;;;;;5048262;28;20211;-70
2021/01/13 10:57:50;;;;;;;8.60;3.80;;;3.50;85.90;;;;;;5048940;28;20193;-71
2021/01/13 11:00:16;;;;;;;5.82;2.70;;;3.70;85.60;;;;;;5045877;28;20210;-71
2021/01/13 11:02:57;;;;;;;8.43;4.22;;;3.70;84.60;;;;;;5046663;28;20196;-73
2021/01/13 11:05:23;;;;;;;5.43;3.33;;;3.60;84.00;;;;;;5046783;28;20207;-70
2021/01/13 11:07:51;;;;;;;13.47;4.37;;;3.70;84.70;;;;;;5046502;28;20176;-70
2021/01/13 11:10:22;;;;;;;6.13;3.20;;;3.80;84.40;;;;;;5052047;28;20458;-69
2021/01/13 11:13:03;;;;;;;9.93;3.53;;;3.80;83.80;;;;;;5053032;28;20621;-71
2021/01/13 11:15:29;;;;;;;13.43;3.57;;;3.90;83.80;;;;;;5045855;28;20986;-70
2021/01/13 11:17:56;;;;;;;5.27;3.50;;;4.00;82.80;;;;;;5046363;28;20803;-70
2021/01/13 11:20:24;;;;;;;5.72;3.25;;;4.10;83.30;;;;;;5050029;28;20462;-71
2021/01/13 11:22:57;;;;;;;15.98;3.15;;;4.20;82.10;;;;;;5053884;28;20317;-71
2021/01/13 11:25:36;;;;;;;12.10;3.33;;;4.20;81.20;;;;;;5055198;28;20205;-70
2021/01/13 11:28:15;;;;;;;4.75;3.00;;;4.10;81.70;;;;;;5047008;28;20485;-70
2021/01/13 11:30:46;;;;;;;6.97;2.90;;;4.00;83.10;;;;;;5045693;28;20188;-71
2021/01/13 11:33:14;;;;;;;6.25;3.10;;;4.00;82.50;;;;;;5047123;28;20500;-69
2021/01/13 11:35:49;;;;;;;9.55;3.65;;;4.20;82.10;;;;;;5047207;28;20641;-71
2021/01/13 11:38:30;;;;;;;5.10;2.87;;;4.20;80.60;;;;;;5046544;28;20188;-72
2021/01/13 11:41:17;;;;;;;6.87;3.47;;;4.20;80.50;;;;;;5052702;28;20476;-72
2021/01/13 11:44:06;;;;;;;4.93;3.43;;;4.40;81.10;;;;;;5067774;28;20422;-71
2021/01/13 11:46:43;;;;;;;11.03;3.40;;;4.40;80.30;;;;;;5067617;28;20513;-71
2021/01/13 11:49:12;;;;;;;4.43;2.70;;;4.40;80.30;;;;;;5045764;28;21001;-72
2021/01/13 11:51:42;;;;;;;7.77;3.33;;;4.20;79.60;;;;;;5048697;28;20423;-71
2021/01/13 11:54:08;;;;;;;6.37;2.60;;;4.20;80.60;;;;;;5060065;28;21188;-71
2021/01/13 11:56:33;;;;;;;6.70;3.77;;;4.20;79.00;;;;;;5050878;28;20446;-70
2021/01/13 11:58:59;;;;;;;5.37;2.80;;;4.10;79.90;;;;;;5050195;28;20450;-71
2021/01/13 12:01:26;;;;;;;12.93;3.30;;;4.10;79.30;;;;;;5052244;28;20284;-71
2021/01/13 12:04:04;;;;;;;5.63;2.90;;;4.10;79.20;;;;;;5048818;28;20234;-71
2021/01/13 12:06:30;;;;;;;6.63;2.30;;;4.30;79.90;;;;;;5035739;28;20933;-72
2021/01/13 12:08:57;;;;;;;4.23;2.97;;;4.30;79.00;;;;;;5049612;28;20419;-72
2021/01/13 12:11:23;;;;;;;6.17;2.97;;;4.40;78.90;;;;;;5048825;28;20415;-71
2021/01/13 12:13:49;;;;;;;4.95;2.65;;;4.40;79.00;;;;;;5049156;28;20430;-70
2021/01/13 12:16:20;;;;;;;6.57;2.40;;;4.40;78.60;;;;;;5048816;28;20267;-72
2021/01/13 12:18:51;;;;;;;5.80;3.00;;;4.50;78.10;;;;;;5048506;28;20435;-71
2021/01/13 12:21:23;;;;;;;5.03;2.40;;;4.70;77.40;;;;;;5045190;28;20478;-71
2021/01/13 12:23:53;;;;;;;5.90;2.63;;;4.80;77.30;;;;;;5057324;28;20435;-70
2021/01/13 12:26:35;;;;;;;3.00;1.90;;;4.80;75.50;;;;;;5061606;28;20495;-72
2021/01/13 12:29:03;;;;;;;2.90;1.80;;;4.80;76.10;;;;;;5048889;28;20419;-70
2021/01/13 12:31:35;;;;;;;6.03;2.50;;;4.90;75.90;;;;;;5047098;28;20427;-71
2021/01/13 12:34:01;;;;;;;3.47;1.90;;;5.00;75.90;;;;;;5056171;28;20453;-70
2021/01/13 12:36:29;;;;;;;3.73;1.77;;;4.90;74.00;;;;;;5049204;28;20429;-71
2021/01/13 12:38:58;;;;;;;7.03;1.47;;;4.90;74.30;;;;;;5049665;28;20463;-71
2021/01/13 12:41:26;;;;;;;4.20;2.00;;;4.90;73.90;;;;;;5051162;28;20485;-71
2021/01/13 12:43:53;;;;;;;6.70;1.77;;;5.00;73.70;;;;;;5055271;28;20462;-70
2021/01/13 12:46:28;;;;;;;5.00;1.97;;;4.90;73.20;;;;;;5050069;28;20419;-70
2021/01/13 12:48:54;;;;;;;4.07;1.60;;;4.90;73.70;;;;;;5054271;28;20422;-71
2021/01/13 12:51:20;;;;;;;12.03;1.80;;;4.90;73.90;;;;;;5052617;28;20423;-70
2021/01/13 12:53:46;;;;;;;3.13;1.77;;;4.80;73.20;;;;;;5058006;28;20487;-70
2021/01/13 12:56:38;;;;;;;4.60;1.73;;;4.60;73.30;;;;;;5071499;28;20215;-71
2021/01/13 12:59:04;;;;;;;2.97;1.27;;;4.60;74.60;;;;;;5058973;28;20510;-70
2021/01/13 13:01:37;;;;;;;4.10;1.40;;;4.70;72.70;;;;;;5072311;28;20477;-72
2021/01/13 13:04:03;;;;;;;4.50;1.43;;;5.00;71.70;;;;;;5072222;28;20210;-72
2021/01/13 13:06:31;;;;;;;11.23;1.90;;;5.10;70.50;;;;;;5066828;28;20472;-72
2021/01/13 13:09:00;;;;;;;3.40;1.63;;;5.00;70.50;;;;;;5063647;28;20910;-71
2021/01/13 13:11:27;;;;;;;3.50;1.87;;;5.00;71.10;;;;;;5058355;28;20441;-72
2021/01/13 13:13:56;;;;;;;4.87;1.67;;;4.90;71.30;;;;;;5058807;28;20431;-71
2021/01/13 13:16:23;;;;;;;4.30;1.47;;;4.80;71.80;;;;;;5050527;28;20430;-71
2021/01/13 13:18:52;;;;;;;12.80;1.60;;;4.90;71.80;;;;;;5052241;28;20455;-71
2021/01/13 13:21:19;;;;;;;7.13;1.70;;;5.00;70.70;;;;;;5046356;28;20503;-70